Cleveland, Ohio
Current Conditions -  °F | °C
As of 1:53 AM on Saturday 25 Oct 2014 (Local Time) from KBKL Reporting Station
Overcast Overcast  
Wind Chill: 55°   Ceiling: 5000
Heat Index: 55°   Visibility: 10mi
Dew Point: 44°   Wind: 5mph
Humidity: 67%   Direction: 170°S
Pressure: 29.96"   Gusts: NA
Location:  41.5°N, 81.69°W
Report Text: KBKL 250553Z AUTO 17004KT 10SM OVC050 13/07 A2996 RMK AO2 SLP144 T01280067 10139 20122 58010
Loading
Personal Weather Stations






























Interactive Weather Map
Tropical Storm Tracking
New forecast layout! Learn more

10-Day Weather Forecast

Advertisements
Track Severe Weather on mobile